sensor_id;sensor_type;location;lat;lon;timestamp;temperature;humidity
5459;DHT22;2752;49.992;8.422;2023-08-24T00:02:20;20.20;1.00
5459;DHT22;2752;49.992;8.422;2023-08-24T00:04:47;20.20;1.00
5459;DHT22;2752;49.992;8.422;2023-08-24T00:07:14;20.20;1.00
5459;DHT22;2752;49.992;8.422;2023-08-24T00:09:40;20.20;1.00
5459;DHT22;2752;49.992;8.422;2023-08-24T00:12:07;20.10;1.00
5459;DHT22;2752;49.992;8.422;2023-08-24T00:17:02;20.10;1.00
5459;DHT22;2752;49.992;8.422;2023-08-24T00:19:30;20.00;1.00
5459;DHT22;2752;49.992;8.422;2023-08-24T00:21:56;20.00;1.00
5459;DHT22;2752;49.992;8.422;2023-08-24T00:24:23;20.00;1.00
5459;DHT22;2752;49.992;8.422;2023-08-24T00:26:50;20.00;1.00
5459;DHT22;2752;49.992;8.422;2023-08-24T00:29:16;20.00;1.00
5459;DHT22;2752;49.992;8.422;2023-08-24T00:31:44;20.00;1.00
5459;DHT22;2752;49.992;8.422;2023-08-24T00:34:11;19.90;1.00
5459;DHT22;2752;49.992;8.422;2023-08-24T00:36:37;19.90;1.00
5459;DHT22;2752;49.992;8.422;2023-08-24T00:39:04;20.30;1.00
5459;DHT22;2752;49.992;8.422;2023-08-24T00:41:31;20.00;1.00
5459;DHT22;2752;49.992;8.422;2023-08-24T00:43:58;19.90;1.00
5459;DHT22;2752;49.992;8.422;2023-08-24T00:46:26;19.90;1.00
5459;DHT22;2752;49.992;8.422;2023-08-24T00:48:54;19.80;1.00
5459;DHT22;2752;49.992;8.422;2023-08-24T00:51:23;19.80;1.00
5459;DHT22;2752;49.992;8.422;2023-08-24T00:53:50;19.80;1.00
5459;DHT22;2752;49.992;8.422;2023-08-24T00:56:17;19.80;1.00
5459;DHT22;2752;49.992;8.422;2023-08-24T00:58:46;19.80;1.00
5459;DHT22;2752;49.992;8.422;2023-08-24T01:01:13;19.70;1.00
5459;DHT22;2752;49.992;8.422;2023-08-24T01:03:40;19.70;1.00
5459;DHT22;2752;49.992;8.422;2023-08-24T01:06:08;19.60;1.00
5459;DHT22;2752;49.992;8.422;2023-08-24T01:08:35;19.60;1.00
5459;DHT22;2752;49.992;8.422;2023-08-24T01:11:07;19.70;1.00
5459;DHT22;2752;49.992;8.422;2023-08-24T01:13:42;19.70;1.00
5459;DHT22;2752;49.992;8.422;2023-08-24T01:16:16;19.60;1.00
5459;DHT22;2752;49.992;8.422;2023-08-24T01:18:43;19.50;1.00
5459;DHT22;2752;49.992;8.422;2023-08-24T01:21:12;19.50;1.00
5459;DHT22;2752;49.992;8.422;2023-08-24T01:23:45;19.50;1.00
5459;DHT22;2752;49.992;8.422;2023-08-24T01:26:17;19.50;1.00
5459;DHT22;2752;49.992;8.422;2023-08-24T01:28:45;19.50;1.00
5459;DHT22;2752;49.992;8.422;2023-08-24T01:31:13;19.50;1.00
5459;DHT22;2752;49.992;8.422;2023-08-24T01:33:40;19.50;1.00
5459;DHT22;2752;49.992;8.422;2023-08-24T01:36:08;19.50;1.00
5459;DHT22;2752;49.992;8.422;2023-08-24T01:38:35;19.50;1.00
5459;DHT22;2752;49.992;8.422;2023-08-24T01:41:09;19.50;1.00
5459;DHT22;2752;49.992;8.422;2023-08-24T01:43:40;19.50;1.00
5459;DHT22;2752;49.992;8.422;2023-08-24T01:46:08;19.50;1.00
5459;DHT22;2752;49.992;8.422;2023-08-24T01:48:36;19.50;1.00
5459;DHT22;2752;49.992;8.422;2023-08-24T01:51:04;19.50;1.00
5459;DHT22;2752;49.992;8.422;2023-08-24T01:53:31;19.50;1.00
5459;DHT22;2752;49.992;8.422;2023-08-24T01:55:58;19.50;1.00
5459;DHT22;2752;49.992;8.422;2023-08-24T01:58:25;19.50;1.00
5459;DHT22;2752;49.992;8.422;2023-08-24T02:00:53;19.60;1.00
5459;DHT22;2752;49.992;8.422;2023-08-24T02:03:19;19.60;1.00
5459;DHT22;2752;49.992;8.422;2023-08-24T02:05:46;19.60;1.00
5459;DHT22;2752;49.992;8.422;2023-08-24T02:08:13;19.60;1.00
5459;DHT22;2752;49.992;8.422;2023-08-24T02:10:39;19.50;1.00
5459;DHT22;2752;49.992;8.422;2023-08-24T02:13:06;19.60;1.00
5459;DHT22;2752;49.992;8.422;2023-08-24T02:15:33;19.60;1.00
5459;DHT22;2752;49.992;8.422;2023-08-24T02:18:02;19.60;1.00
5459;DHT22;2752;49.992;8.422;2023-08-24T02:20:30;19.60;1.00
5459;DHT22;2752;49.992;8.422;2023-08-24T02:23:02;19.70;1.00
5459;DHT22;2752;49.992;8.422;2023-08-24T02:25:30;19.70;1.00
5459;DHT22;2752;49.992;8.422;2023-08-24T02:27:58;19.70;1.00
5459;DHT22;2752;49.992;8.422;2023-08-24T02:30:25;19.70;1.00
5459;DHT22;2752;49.992;8.422;2023-08-24T02:32:52;19.70;1.00
5459;DHT22;2752;49.992;8.422;2023-08-24T02:35:19;19.70;1.00
5459;DHT22;2752;49.992;8.422;2023-08-24T02:37:46;19.80;1.00
5459;DHT22;2752;49.992;8.422;2023-08-24T02:40:14;19.70;1.00
5459;DHT22;2752;49.992;8.422;2023-08-24T02:42:41;19.80;1.00
5459;DHT22;2752;49.992;8.422;2023-08-24T02:45:08;19.80;1.00
5459;DHT22;2752;49.992;8.422;2023-08-24T02:47:35;19.80;1.00
5459;DHT22;2752;49.992;8.422;2023-08-24T02:50:02;19.70;1.00
5459;DHT22;2752;49.992;8.422;2023-08-24T02:52:30;19.80;1.00
5459;DHT22;2752;49.992;8.422;2023-08-24T02:54:57;19.70;1.00
5459;DHT22;2752;49.992;8.422;2023-08-24T02:57:24;19.70;1.00
5459;DHT22;2752;49.992;8.422;2023-08-24T02:59:51;19.70;1.00
5459;DHT22;2752;49.992;8.422;2023-08-24T03:02:17;19.70;1.00
5459;DHT22;2752;49.992;8.422;2023-08-24T03:04:44;19.70;1.00
5459;DHT22;2752;49.992;8.422;2023-08-24T03:07:10;19.80;1.00
5459;DHT22;2752;49.992;8.422;2023-08-24T03:09:38;19.70;1.00
5459;DHT22;2752;49.992;8.422;2023-08-24T03:12:05;19.70;1.00
5459;DHT22;2752;49.992;8.422;2023-08-24T03:14:32;19.80;1.00
5459;DHT22;2752;49.992;8.422;2023-08-24T03:16:59;19.80;1.00
5459;DHT22;2752;49.992;8.422;2023-08-24T03:19:26;19.80;1.00
5459;DHT22;2752;49.992;8.422;2023-08-24T03:21:54;19.70;1.00
5459;DHT22;2752;49.992;8.422;2023-08-24T03:24:24;19.70;1.00
5459;DHT22;2752;49.992;8.422;2023-08-24T03:26:54;19.80;1.00
5459;DHT22;2752;49.992;8.422;2023-08-24T03:31:56;19.80;1.00
5459;DHT22;2752;49.992;8.422;2023-08-24T03:34:23;19.70;1.00
5459;DHT22;2752;49.992;8.422;2023-08-24T03:36:49;19.70;1.00
5459;DHT22;2752;49.992;8.422;2023-08-24T03:39:17;19.80;1.00
5459;DHT22;2752;49.992;8.422;2023-08-24T03:41:45;19.70;1.00
5459;DHT22;2752;49.992;8.422;2023-08-24T03:44:14;19.70;1.00
5459;DHT22;2752;49.992;8.422;2023-08-24T03:46:41;19.70;1.00
5459;DHT22;2752;49.992;8.422;2023-08-24T03:49:08;19.70;1.00
5459;DHT22;2752;49.992;8.422;2023-08-24T03:51:35;19.80;1.00
5459;DHT22;2752;49.992;8.422;2023-08-24T03:54:01;19.70;1.00
5459;DHT22;2752;49.992;8.422;2023-08-24T03:56:28;19.70;1.00
5459;DHT22;2752;49.992;8.422;2023-08-24T03:58:55;19.70;1.00
5459;DHT22;2752;49.992;8.422;2023-08-24T04:01:23;19.80;1.00
5459;DHT22;2752;49.992;8.422;2023-08-24T04:03:50;19.80;1.00
5459;DHT22;2752;49.992;8.422;2023-08-24T04:06:18;19.70;1.00
5459;DHT22;2752;49.992;8.422;2023-08-24T04:08:45;19.70;1.00
5459;DHT22;2752;49.992;8.422;2023-08-24T04:11:12;19.70;1.00
5459;DHT22;2752;49.992;8.422;2023-08-24T04:13:38;19.70;1.00
5459;DHT22;2752;49.992;8.422;2023-08-24T04:16:05;19.70;1.00
5459;DHT22;2752;49.992;8.422;2023-08-24T04:18:33;19.70;1.00
5459;DHT22;2752;49.992;8.422;2023-08-24T04:20:59;19.70;1.00
5459;DHT22;2752;49.992;8.422;2023-08-24T04:23:27;19.70;1.00
5459;DHT22;2752;49.992;8.422;2023-08-24T04:25:54;19.60;1.00
5459;DHT22;2752;49.992;8.422;2023-08-24T04:28:20;19.70;1.00
5459;DHT22;2752;49.992;8.422;2023-08-24T04:30:50;19.70;1.00
5459;DHT22;2752;49.992;8.422;2023-08-24T04:33:17;19.70;1.00
5459;DHT22;2752;49.992;8.422;2023-08-24T04:35:47;19.60;1.00
5459;DHT22;2752;49.992;8.422;2023-08-24T04:38:13;19.70;1.00
5459;DHT22;2752;49.992;8.422;2023-08-24T04:40:48;19.70;1.00
5459;DHT22;2752;49.992;8.422;2023-08-24T04:43:15;19.10;1.00
5459;DHT22;2752;49.992;8.422;2023-08-24T04:45:42;19.50;1.00
5459;DHT22;2752;49.992;8.422;2023-08-24T04:48:08;19.60;1.00
5459;DHT22;2752;49.992;8.422;2023-08-24T04:50:35;19.50;1.00
5459;DHT22;2752;49.992;8.422;2023-08-24T04:53:03;19.60;1.00
5459;DHT22;2752;49.992;8.422;2023-08-24T04:55:30;19.60;1.00
5459;DHT22;2752;49.992;8.422;2023-08-24T04:57:56;19.70;1.00
5459;DHT22;2752;49.992;8.422;2023-08-24T05:00:23;19.70;1.00
5459;DHT22;2752;49.992;8.422;2023-08-24T05:02:50;19.70;1.00
5459;DHT22;2752;49.992;8.422;2023-08-24T05:05:16;19.60;1.00
5459;DHT22;2752;49.992;8.422;2023-08-24T05:07:43;19.60;1.00
5459;DHT22;2752;49.992;8.422;2023-08-24T05:10:11;19.60;1.00
5459;DHT22;2752;49.992;8.422;2023-08-24T05:12:38;19.70;1.00
5459;DHT22;2752;49.992;8.422;2023-08-24T05:15:05;19.70;1.00
5459;DHT22;2752;49.992;8.422;2023-08-24T05:17:32;19.80;1.00
5459;DHT22;2752;49.992;8.422;2023-08-24T05:19:59;19.70;1.00
5459;DHT22;2752;49.992;8.422;2023-08-24T05:22:25;19.80;1.00
5459;DHT22;2752;49.992;8.422;2023-08-24T05:24:52;19.90;1.00
5459;DHT22;2752;49.992;8.422;2023-08-24T05:27:20;19.90;1.00
5459;DHT22;2752;49.992;8.422;2023-08-24T05:29:46;19.80;1.00
5459;DHT22;2752;49.992;8.422;2023-08-24T05:32:13;19.80;1.00
5459;DHT22;2752;49.992;8.422;2023-08-24T05:34:40;19.90;1.00
5459;DHT22;2752;49.992;8.422;2023-08-24T05:37:06;19.90;1.00
5459;DHT22;2752;49.992;8.422;2023-08-24T05:39:33;19.80;1.00
5459;DHT22;2752;49.992;8.422;2023-08-24T05:42:00;19.90;1.00
5459;DHT22;2752;49.992;8.422;2023-08-24T05:44:27;19.90;1.00
5459;DHT22;2752;49.992;8.422;2023-08-24T05:46:54;20.00;1.00
5459;DHT22;2752;49.992;8.422;2023-08-24T05:49:21;20.10;1.00
5459;DHT22;2752;49.992;8.422;2023-08-24T05:51:51;20.30;1.00
5459;DHT22;2752;49.992;8.422;2023-08-24T05:54:19;20.30;1.00
5459;DHT22;2752;49.992;8.422;2023-08-24T05:56:46;20.30;1.00
5459;DHT22;2752;49.992;8.422;2023-08-24T05:59:13;20.30;1.00
5459;DHT22;2752;49.992;8.422;2023-08-24T06:01:41;20.40;1.00
5459;DHT22;2752;49.992;8.422;2023-08-24T06:04:08;20.50;1.00
5459;DHT22;2752;49.992;8.422;2023-08-24T06:06:35;20.50;1.00
5459;DHT22;2752;49.992;8.422;2023-08-24T06:09:02;20.60;1.00
5459;DHT22;2752;49.992;8.422;2023-08-24T06:11:30;20.70;1.00
5459;DHT22;2752;49.992;8.422;2023-08-24T06:13:57;20.80;1.00
5459;DHT22;2752;49.992;8.422;2023-08-24T06:16:23;20.90;1.00
5459;DHT22;2752;49.992;8.422;2023-08-24T06:18:51;20.90;1.00
5459;DHT22;2752;49.992;8.422;2023-08-24T06:21:18;21.00;1.00
5459;DHT22;2752;49.992;8.422;2023-08-24T06:23:45;21.00;1.00
5459;DHT22;2752;49.992;8.422;2023-08-24T06:26:13;21.10;1.00
5459;DHT22;2752;49.992;8.422;2023-08-24T06:28:39;21.10;1.00
5459;DHT22;2752;49.992;8.422;2023-08-24T06:31:06;21.10;1.00
5459;DHT22;2752;49.992;8.422;2023-08-24T06:33:34;21.10;1.00
5459;DHT22;2752;49.992;8.422;2023-08-24T06:36:03;21.10;1.00
5459;DHT22;2752;49.992;8.422;2023-08-24T06:38:31;21.00;1.00
5459;DHT22;2752;49.992;8.422;2023-08-24T06:40:58;20.90;1.00
5459;DHT22;2752;49.992;8.422;2023-08-24T06:43:25;20.80;1.00
5459;DHT22;2752;49.992;8.422;2023-08-24T06:45:52;20.80;1.00
5459;DHT22;2752;49.992;8.422;2023-08-24T06:48:19;20.80;1.00
5459;DHT22;2752;49.992;8.422;2023-08-24T06:50:45;20.90;1.00
5459;DHT22;2752;49.992;8.422;2023-08-24T06:53:13;21.00;1.00
5459;DHT22;2752;49.992;8.422;2023-08-24T06:55:40;21.20;1.00
5459;DHT22;2752;49.992;8.422;2023-08-24T06:58:07;21.30;1.00
5459;DHT22;2752;49.992;8.422;2023-08-24T07:00:33;21.40;1.00
5459;DHT22;2752;49.992;8.422;2023-08-24T07:03:01;21.60;1.00
5459;DHT22;2752;49.992;8.422;2023-08-24T07:05:27;21.50;1.00
5459;DHT22;2752;49.992;8.422;2023-08-24T07:07:54;21.60;1.00
5459;DHT22;2752;49.992;8.422;2023-08-24T07:10:22;21.60;1.00
5459;DHT22;2752;49.992;8.422;2023-08-24T07:12:49;21.80;1.00
5459;DHT22;2752;49.992;8.422;2023-08-24T07:15:16;21.80;1.00
5459;DHT22;2752;49.992;8.422;2023-08-24T07:17:42;21.80;1.00
5459;DHT22;2752;49.992;8.422;2023-08-24T07:20:09;21.80;1.00
5459;DHT22;2752;49.992;8.422;2023-08-24T07:22:37;21.90;1.00
5459;DHT22;2752;49.992;8.422;2023-08-24T07:25:05;22.00;1.00
5459;DHT22;2752;49.992;8.422;2023-08-24T07:27:33;22.00;1.00
5459;DHT22;2752;49.992;8.422;2023-08-24T07:30:00;22.00;1.00
5459;DHT22;2752;49.992;8.422;2023-08-24T07:32:28;22.00;1.00
5459;DHT22;2752;49.992;8.422;2023-08-24T07:37:24;22.00;1.00
5459;DHT22;2752;49.992;8.422;2023-08-24T07:39:51;22.10;1.00
5459;DHT22;2752;49.992;8.422;2023-08-24T07:42:20;22.20;1.00
5459;DHT22;2752;49.992;8.422;2023-08-24T07:44:48;22.30;1.00
5459;DHT22;2752;49.992;8.422;2023-08-24T07:47:15;22.40;1.00
5459;DHT22;2752;49.992;8.422;2023-08-24T07:49:41;22.10;1.00
5459;DHT22;2752;49.992;8.422;2023-08-24T07:52:10;22.30;1.00
5459;DHT22;2752;49.992;8.422;2023-08-24T07:54:37;21.60;1.00
5459;DHT22;2752;49.992;8.422;2023-08-24T07:57:04;22.10;1.00
5459;DHT22;2752;49.992;8.422;2023-08-24T07:59:31;22.20;1.00
5459;DHT22;2752;49.992;8.422;2023-08-24T08:01:59;22.20;1.00
5459;DHT22;2752;49.992;8.422;2023-08-24T08:04:26;22.30;1.00
5459;DHT22;2752;49.992;8.422;2023-08-24T08:06:52;22.30;1.00
5459;DHT22;2752;49.992;8.422;2023-08-24T08:09:21;22.30;1.00
5459;DHT22;2752;49.992;8.422;2023-08-24T08:11:48;22.20;1.00
5459;DHT22;2752;49.992;8.422;2023-08-24T08:14:14;22.10;1.00
5459;DHT22;2752;49.992;8.422;2023-08-24T08:16:41;22.00;1.00
5459;DHT22;2752;49.992;8.422;2023-08-24T08:19:09;22.00;1.00
5459;DHT22;2752;49.992;8.422;2023-08-24T08:21:35;22.20;1.00
5459;DHT22;2752;49.992;8.422;2023-08-24T08:24:02;22.20;1.00
5459;DHT22;2752;49.992;8.422;2023-08-24T08:26:29;22.30;1.00
5459;DHT22;2752;49.992;8.422;2023-08-24T08:28:56;22.30;1.00
5459;DHT22;2752;49.992;8.422;2023-08-24T08:31:23;22.30;1.00
5459;DHT22;2752;49.992;8.422;2023-08-24T08:33:49;22.50;1.00
5459;DHT22;2752;49.992;8.422;2023-08-24T08:36:18;22.50;1.00
5459;DHT22;2752;49.992;8.422;2023-08-24T08:38:44;22.40;1.00
5459;DHT22;2752;49.992;8.422;2023-08-24T08:41:12;22.50;1.00
5459;DHT22;2752;49.992;8.422;2023-08-24T08:43:39;22.50;1.00
5459;DHT22;2752;49.992;8.422;2023-08-24T08:46:05;22.60;1.00
5459;DHT22;2752;49.992;8.422;2023-08-24T08:48:32;22.80;1.00
5459;DHT22;2752;49.992;8.422;2023-08-24T08:51:01;23.00;1.00
5459;DHT22;2752;49.992;8.422;2023-08-24T08:53:29;23.20;1.00
5459;DHT22;2752;49.992;8.422;2023-08-24T08:55:56;23.40;1.00
5459;DHT22;2752;49.992;8.422;2023-08-24T08:58:29;23.50;1.00
5459;DHT22;2752;49.992;8.422;2023-08-24T09:00:56;23.70;1.00
5459;DHT22;2752;49.992;8.422;2023-08-24T09:03:26;23.90;1.00
5459;DHT22;2752;49.992;8.422;2023-08-24T09:05:54;24.10;1.00
5459;DHT22;2752;49.992;8.422;2023-08-24T09:08:23;24.50;1.00
5459;DHT22;2752;49.992;8.422;2023-08-24T09:10:51;24.60;1.00
5459;DHT22;2752;49.992;8.422;2023-08-24T09:13:18;24.70;1.00
5459;DHT22;2752;49.992;8.422;2023-08-24T09:15:44;24.80;1.00
5459;DHT22;2752;49.992;8.422;2023-08-24T09:18:11;25.00;1.00
5459;DHT22;2752;49.992;8.422;2023-08-24T09:20:38;25.10;1.00
5459;DHT22;2752;49.992;8.422;2023-08-24T09:23:04;25.20;1.00
5459;DHT22;2752;49.992;8.422;2023-08-24T09:25:31;25.30;1.00
5459;DHT22;2752;49.992;8.422;2023-08-24T09:28:00;25.60;1.00
5459;DHT22;2752;49.992;8.422;2023-08-24T09:30:30;25.60;1.00
5459;DHT22;2752;49.992;8.422;2023-08-24T09:33:01;25.60;1.00
5459;DHT22;2752;49.992;8.422;2023-08-24T09:35:29;25.80;1.00
5459;DHT22;2752;49.992;8.422;2023-08-24T09:37:56;25.90;1.00
5459;DHT22;2752;49.992;8.422;2023-08-24T09:40:24;26.00;1.00
5459;DHT22;2752;49.992;8.422;2023-08-24T09:42:52;26.10;1.00
5459;DHT22;2752;49.992;8.422;2023-08-24T09:45:20;26.00;1.00
5459;DHT22;2752;49.992;8.422;2023-08-24T09:47:50;26.10;1.00
5459;DHT22;2752;49.992;8.422;2023-08-24T09:50:18;26.10;1.00
5459;DHT22;2752;49.992;8.422;2023-08-24T09:52:45;26.10;1.00
5459;DHT22;2752;49.992;8.422;2023-08-24T09:55:15;26.20;1.00
5459;DHT22;2752;49.992;8.422;2023-08-24T09:57:44;26.60;1.00
5459;DHT22;2752;49.992;8.422;2023-08-24T10:00:13;26.50;1.00
5459;DHT22;2752;49.992;8.422;2023-08-24T10:02:48;26.70;1.00
5459;DHT22;2752;49.992;8.422;2023-08-24T10:05:17;26.60;1.00
5459;DHT22;2752;49.992;8.422;2023-08-24T10:07:49;26.60;1.00
5459;DHT22;2752;49.992;8.422;2023-08-24T10:10:18;26.30;1.00
5459;DHT22;2752;49.992;8.422;2023-08-24T10:12:50;26.20;1.00
5459;DHT22;2752;49.992;8.422;2023-08-24T10:15:18;26.30;1.00
5459;DHT22;2752;49.992;8.422;2023-08-24T10:17:46;26.70;1.00
5459;DHT22;2752;49.992;8.422;2023-08-24T10:20:14;27.00;1.00
5459;DHT22;2752;49.992;8.422;2023-08-24T10:22:41;27.40;1.00
5459;DHT22;2752;49.992;8.422;2023-08-24T10:25:09;27.40;1.00
5459;DHT22;2752;49.992;8.422;2023-08-24T10:27:36;27.70;1.00
5459;DHT22;2752;49.992;8.422;2023-08-24T10:30:10;27.70;1.00
5459;DHT22;2752;49.992;8.422;2023-08-24T10:32:37;27.80;1.00
5459;DHT22;2752;49.992;8.422;2023-08-24T10:35:07;28.10;1.00
5459;DHT22;2752;49.992;8.422;2023-08-24T10:37:34;28.30;1.00
5459;DHT22;2752;49.992;8.422;2023-08-24T10:40:01;28.50;1.00
5459;DHT22;2752;49.992;8.422;2023-08-24T10:42:43;28.60;1.00
5459;DHT22;2752;49.992;8.422;2023-08-24T10:45:10;28.50;1.00
5459;DHT22;2752;49.992;8.422;2023-08-24T10:47:44;28.50;1.00
5459;DHT22;2752;49.992;8.422;2023-08-24T10:50:13;28.50;1.00
5459;DHT22;2752;49.992;8.422;2023-08-24T10:52:43;28.40;1.00
5459;DHT22;2752;49.992;8.422;2023-08-24T10:55:22;28.50;1.00
5459;DHT22;2752;49.992;8.422;2023-08-24T10:57:56;28.50;1.00
5459;DHT22;2752;49.992;8.422;2023-08-24T11:00:25;28.60;1.00
5459;DHT22;2752;49.992;8.422;2023-08-24T11:02:53;28.70;1.00
5459;DHT22;2752;49.992;8.422;2023-08-24T11:05:22;28.70;1.00
5459;DHT22;2752;49.992;8.422;2023-08-24T11:07:52;28.80;1.00
5459;DHT22;2752;49.992;8.422;2023-08-24T11:10:19;28.80;1.00
5459;DHT22;2752;49.992;8.422;2023-08-24T11:13:11;29.00;1.00
5459;DHT22;2752;49.992;8.422;2023-08-24T11:15:39;29.10;1.00
5459;DHT22;2752;49.992;8.422;2023-08-24T11:18:23;29.20;1.00
5459;DHT22;2752;49.992;8.422;2023-08-24T11:20:53;29.30;1.00
5459;DHT22;2752;49.992;8.422;2023-08-24T11:23:21;29.50;1.00
5459;DHT22;2752;49.992;8.422;2023-08-24T11:25:49;29.60;1.00
5459;DHT22;2752;49.992;8.422;2023-08-24T11:28:20;29.60;1.00
5459;DHT22;2752;49.992;8.422;2023-08-24T11:30:47;29.60;1.00
5459;DHT22;2752;49.992;8.422;2023-08-24T11:33:14;29.60;1.00
5459;DHT22;2752;49.992;8.422;2023-08-24T11:38:12;29.90;1.00
5459;DHT22;2752;49.992;8.422;2023-08-24T11:43:06;30.20;1.00
5459;DHT22;2752;49.992;8.422;2023-08-24T11:48:02;30.30;1.00
5459;DHT22;2752;49.992;8.422;2023-08-24T11:50:30;30.10;1.00
5459;DHT22;2752;49.992;8.422;2023-08-24T11:52:57;29.90;1.00
5459;DHT22;2752;49.992;8.422;2023-08-24T11:55:26;30.00;1.00
5459;DHT22;2752;49.992;8.422;2023-08-24T11:57:53;30.00;1.00
5459;DHT22;2752;49.992;8.422;2023-08-24T12:00:21;29.80;1.00
5459;DHT22;2752;49.992;8.422;2023-08-24T12:02:48;29.80;1.00
5459;DHT22;2752;49.992;8.422;2023-08-24T12:05:22;29.70;1.00
5459;DHT22;2752;49.992;8.422;2023-08-24T12:10:16;29.50;1.00
5459;DHT22;2752;49.992;8.422;2023-08-24T12:15:18;29.70;1.00
5459;DHT22;2752;49.992;8.422;2023-08-24T12:17:46;29.60;1.00
5459;DHT22;2752;49.992;8.422;2023-08-24T12:22:50;29.50;1.00
5459;DHT22;2752;49.992;8.422;2023-08-24T12:27:46;29.50;1.00
5459;DHT22;2752;49.992;8.422;2023-08-24T12:30:13;29.60;1.00
5459;DHT22;2752;49.992;8.422;2023-08-24T12:35:10;29.70;1.00
5459;DHT22;2752;49.992;8.422;2023-08-24T12:42:31;29.70;1.00
5459;DHT22;2752;49.992;8.422;2023-08-24T12:44:59;29.70;1.00
5459;DHT22;2752;49.992;8.422;2023-08-24T12:47:26;29.80;1.00
5459;DHT22;2752;49.992;8.422;2023-08-24T12:49:53;29.80;1.00
5459;DHT22;2752;49.992;8.422;2023-08-24T12:52:21;29.90;1.00
5459;DHT22;2752;49.992;8.422;2023-08-24T12:57:15;30.00;1.00
5459;DHT22;2752;49.992;8.422;2023-08-24T12:59:42;30.10;1.00
5459;DHT22;2752;49.992;8.422;2023-08-24T13:02:10;30.20;1.00
5459;DHT22;2752;49.992;8.422;2023-08-24T13:07:04;30.10;1.00
5459;DHT22;2752;49.992;8.422;2023-08-24T13:09:30;30.40;1.00
5459;DHT22;2752;49.992;8.422;2023-08-24T13:11:57;30.10;1.00
5459;DHT22;2752;49.992;8.422;2023-08-24T13:14:24;30.10;1.00
5459;DHT22;2752;49.992;8.422;2023-08-24T13:16:50;30.10;1.00
5459;DHT22;2752;49.992;8.422;2023-08-24T13:19:18;30.00;1.00
5459;DHT22;2752;49.992;8.422;2023-08-24T13:21:45;30.00;1.00
5459;DHT22;2752;49.992;8.422;2023-08-24T13:24:12;29.90;1.00
5459;DHT22;2752;49.992;8.422;2023-08-24T13:26:38;29.90;1.00
5459;DHT22;2752;49.992;8.422;2023-08-24T13:29:05;29.80;1.00
5459;DHT22;2752;49.992;8.422;2023-08-24T13:31:31;29.60;1.00
5459;DHT22;2752;49.992;8.422;2023-08-24T13:33:58;29.50;1.00
5459;DHT22;2752;49.992;8.422;2023-08-24T13:36:26;29.50;1.00
5459;DHT22;2752;49.992;8.422;2023-08-24T13:38:53;29.40;1.00
5459;DHT22;2752;49.992;8.422;2023-08-24T13:41:19;29.40;1.00
5459;DHT22;2752;49.992;8.422;2023-08-24T13:43:46;29.50;1.00
5459;DHT22;2752;49.992;8.422;2023-08-24T13:46:12;29.50;1.00
5459;DHT22;2752;49.992;8.422;2023-08-24T13:48:39;29.40;1.00
5459;DHT22;2752;49.992;8.422;2023-08-24T13:51:06;29.30;1.00
5459;DHT22;2752;49.992;8.422;2023-08-24T13:53:34;29.30;1.00
5459;DHT22;2752;49.992;8.422;2023-08-24T13:56:01;29.40;1.00
5459;DHT22;2752;49.992;8.422;2023-08-24T13:58:28;29.50;1.00
5459;DHT22;2752;49.992;8.422;2023-08-24T14:00:55;29.50;1.00
5459;DHT22;2752;49.992;8.422;2023-08-24T14:03:22;29.30;1.00
5459;DHT22;2752;49.992;8.422;2023-08-24T14:08:16;29.00;1.00
5459;DHT22;2752;49.992;8.422;2023-08-24T14:10:44;28.80;1.00
5459;DHT22;2752;49.992;8.422;2023-08-24T14:13:14;28.80;1.00
5459;DHT22;2752;49.992;8.422;2023-08-24T14:15:40;28.60;1.00
5459;DHT22;2752;49.992;8.422;2023-08-24T14:18:07;28.60;1.00
5459;DHT22;2752;49.992;8.422;2023-08-24T14:20:33;28.50;1.00
5459;DHT22;2752;49.992;8.422;2023-08-24T14:23:00;28.50;1.00
5459;DHT22;2752;49.992;8.422;2023-08-24T14:25:27;28.80;1.00
5459;DHT22;2752;49.992;8.422;2023-08-24T14:27:55;28.90;1.00
5459;DHT22;2752;49.992;8.422;2023-08-24T14:30:21;29.00;1.00
5459;DHT22;2752;49.992;8.422;2023-08-24T14:32:48;28.90;1.00
5459;DHT22;2752;49.992;8.422;2023-08-24T14:35:15;29.00;1.00
5459;DHT22;2752;49.992;8.422;2023-08-24T14:37:42;29.10;1.00
5459;DHT22;2752;49.992;8.422;2023-08-24T14:40:09;28.90;1.00
5459;DHT22;2752;49.992;8.422;2023-08-24T14:42:36;28.80;1.00
5459;DHT22;2752;49.992;8.422;2023-08-24T14:45:05;28.70;1.00
5459;DHT22;2752;49.992;8.422;2023-08-24T14:47:32;28.70;1.00
5459;DHT22;2752;49.992;8.422;2023-08-24T14:49:58;28.60;1.00
5459;DHT22;2752;49.992;8.422;2023-08-24T14:52:25;28.60;1.00
5459;DHT22;2752;49.992;8.422;2023-08-24T14:54:52;28.50;1.00
5459;DHT22;2752;49.992;8.422;2023-08-24T14:57:19;28.40;1.00
5459;DHT22;2752;49.992;8.422;2023-08-24T14:59:45;28.40;1.00
5459;DHT22;2752;49.992;8.422;2023-08-24T15:02:13;28.30;1.00
5459;DHT22;2752;49.992;8.422;2023-08-24T15:04:40;28.20;1.00
5459;DHT22;2752;49.992;8.422;2023-08-24T15:07:07;28.30;1.00
5459;DHT22;2752;49.992;8.422;2023-08-24T15:09:33;28.30;1.00
5459;DHT22;2752;49.992;8.422;2023-08-24T15:12:00;28.20;1.00
5459;DHT22;2752;49.992;8.422;2023-08-24T15:14:30;28.10;1.00
5459;DHT22;2752;49.992;8.422;2023-08-24T15:16:56;28.10;1.00
5459;DHT22;2752;49.992;8.422;2023-08-24T15:19:24;28.00;1.00
5459;DHT22;2752;49.992;8.422;2023-08-24T15:21:51;27.90;1.00
5459;DHT22;2752;49.992;8.422;2023-08-24T15:24:17;27.70;1.00
5459;DHT22;2752;49.992;8.422;2023-08-24T15:26:44;27.60;1.00
5459;DHT22;2752;49.992;8.422;2023-08-24T15:29:12;27.50;1.00
5459;DHT22;2752;49.992;8.422;2023-08-24T15:31:40;27.50;1.00
5459;DHT22;2752;49.992;8.422;2023-08-24T15:34:07;27.40;1.00
5459;DHT22;2752;49.992;8.422;2023-08-24T15:39:03;27.40;1.00
5459;DHT22;2752;49.992;8.422;2023-08-24T15:41:30;27.60;1.00
5459;DHT22;2752;49.992;8.422;2023-08-24T15:43:57;27.50;1.00
5459;DHT22;2752;49.992;8.422;2023-08-24T15:46:23;27.60;1.00
5459;DHT22;2752;49.992;8.422;2023-08-24T15:48:50;27.60;1.00
5459;DHT22;2752;49.992;8.422;2023-08-24T15:51:21;27.50;1.00
5459;DHT22;2752;49.992;8.422;2023-08-24T15:53:49;27.50;1.00
5459;DHT22;2752;49.992;8.422;2023-08-24T15:56:16;27.50;1.00
5459;DHT22;2752;49.992;8.422;2023-08-24T15:58:42;27.60;1.00
5459;DHT22;2752;49.992;8.422;2023-08-24T16:01:09;27.50;1.00
5459;DHT22;2752;49.992;8.422;2023-08-24T16:03:36;27.50;1.00
5459;DHT22;2752;49.992;8.422;2023-08-24T16:06:03;27.40;1.00
5459;DHT22;2752;49.992;8.422;2023-08-24T16:08:30;27.30;1.00
5459;DHT22;2752;49.992;8.422;2023-08-24T16:10:58;27.00;1.00
5459;DHT22;2752;49.992;8.422;2023-08-24T16:15:52;26.80;1.00
5459;DHT22;2752;49.992;8.422;2023-08-24T16:18:22;26.90;1.00
5459;DHT22;2752;49.992;8.422;2023-08-24T16:20:49;26.70;1.00
5459;DHT22;2752;49.992;8.422;2023-08-24T16:23:16;26.70;1.00
5459;DHT22;2752;49.992;8.422;2023-08-24T16:25:43;26.80;1.00
5459;DHT22;2752;49.992;8.422;2023-08-24T16:28:12;26.80;1.00
5459;DHT22;2752;49.992;8.422;2023-08-24T16:30:39;26.80;1.00
5459;DHT22;2752;49.992;8.422;2023-08-24T16:33:05;26.70;1.00
5459;DHT22;2752;49.992;8.422;2023-08-24T16:35:32;26.60;1.00
5459;DHT22;2752;49.992;8.422;2023-08-24T16:37:58;26.60;1.00
5459;DHT22;2752;49.992;8.422;2023-08-24T16:42:52;26.60;1.00
5459;DHT22;2752;49.992;8.422;2023-08-24T16:45:20;26.60;1.00
5459;DHT22;2752;49.992;8.422;2023-08-24T16:47:49;26.50;1.00
5459;DHT22;2752;49.992;8.422;2023-08-24T16:55:09;26.40;1.00
5459;DHT22;2752;49.992;8.422;2023-08-24T16:57:36;26.40;1.00
5459;DHT22;2752;49.992;8.422;2023-08-24T17:00:03;26.40;1.00
5459;DHT22;2752;49.992;8.422;2023-08-24T17:02:31;26.30;1.00
5459;DHT22;2752;49.992;8.422;2023-08-24T17:04:58;26.20;1.00
5459;DHT22;2752;49.992;8.422;2023-08-24T17:07:25;26.40;1.00
5459;DHT22;2752;49.992;8.422;2023-08-24T17:09:52;26.10;1.00
5459;DHT22;2752;49.992;8.422;2023-08-24T17:12:18;26.00;1.00